Time;durP1;ratioP1;P1;durP2;ratioP2;P2;SDS_P1;SDS_P2;PMS_P1;PMS_P2;Temp;Humidity;BMP_temperature;BMP_pressure;BME280_temperature;BME280_humidity;BME280_pressure;Samples;Min_cycle;Max_cycle;Signal;HPM_P1;HPM_P2
2020/12/29 00:01:38;;;;;;;10.90;6.85;;;;;;;;;;4362267;32;20077;-66
2020/12/29 00:04:05;;;;;;;9.45;7.10;;;;;;;;;;4362491;32;20154;-65
2020/12/29 00:06:31;;;;;;;11.48;7.85;;;;;;;;;;4374736;32;20089;-66
2020/12/29 00:08:57;;;;;;;10.55;7.53;;;;;;;;;;4349520;32;20094;-65
2020/12/29 00:11:23;;;;;;;11.55;7.53;;;;;;;;;;4362521;32;20167;-65
2020/12/29 00:13:49;;;;;;;10.48;7.37;;;;;;;;;;4362466;32;20545;-66
2020/12/29 00:16:15;;;;;;;11.02;7.18;;;;;;;;;;4376594;32;20485;-66
2020/12/29 00:18:41;;;;;;;10.30;7.47;;;;;;;;;;4378460;32;20097;-65
2020/12/29 00:21:06;;;;;;;11.90;8.35;;;;;;;;;;4364867;32;20093;-66
2020/12/29 00:23:32;;;;;;;12.48;8.52;;;;;;;;;;4377366;32;20074;-66
2020/12/29 00:25:58;;;;;;;12.45;8.63;;;;;;;;;;4377286;32;20089;-65
2020/12/29 00:28:23;;;;;;;12.82;8.85;;;;;;;;;;4352500;32;20512;-65
2020/12/29 00:30:49;;;;;;;12.27;8.85;;;;;;;;;;4365031;32;20469;-66
2020/12/29 00:33:15;;;;;;;13.57;8.48;;;;;;;;;;4376983;32;20128;-66
2020/12/29 00:35:41;;;;;;;10.57;7.72;;;;;;;;;;4376690;32;20067;-65
2020/12/29 00:38:06;;;;;;;11.20;7.65;;;;;;;;;;4377522;32;20146;-65
2020/12/29 00:40:32;;;;;;;11.55;7.40;;;;;;;;;;4376981;32;20152;-67
2020/12/29 00:42:58;;;;;;;10.05;6.78;;;;;;;;;;4389758;32;20093;-65
2020/12/29 00:45:23;;;;;;;10.40;6.65;;;;;;;;;;4391029;32;20526;-65
2020/12/29 00:47:49;;;;;;;11.12;6.78;;;;;;;;;;4389699;32;20157;-66
2020/12/29 00:50:15;;;;;;;9.88;7.40;;;;;;;;;;4376982;32;20066;-65
2020/12/29 00:52:40;;;;;;;9.23;6.90;;;;;;;;;;4366115;32;20504;-65
2020/12/29 00:55:06;;;;;;;10.25;6.80;;;;;;;;;;4379799;32;20601;-66
2020/12/29 00:57:32;;;;;;;10.63;6.65;;;;;;;;;;4379832;32;20074;-66
2020/12/29 00:59:58;;;;;;;9.35;7.10;;;;;;;;;;4379605;32;20179;-65
2020/12/29 01:02:23;;;;;;;9.23;6.87;;;;;;;;;;4379669;32;20170;-65
2020/12/29 01:04:49;;;;;;;10.30;7.18;;;;;;;;;;4393122;32;20155;-66
2020/12/29 01:07:15;;;;;;;9.57;6.78;;;;;;;;;;4394648;32;20065;-65
2020/12/29 01:09:40;;;;;;;10.13;7.15;;;;;;;;;;4400058;32;20137;-65
2020/12/29 01:12:06;;;;;;;11.35;6.87;;;;;;;;;;4402251;32;20077;-65
2020/12/29 01:14:32;;;;;;;9.48;6.85;;;;;;;;;;4407448;32;20097;-67
2020/12/29 01:16:58;;;;;;;10.70;6.78;;;;;;;;;;4388388;32;20068;-65
2020/12/29 01:19:23;;;;;;;9.73;6.37;;;;;;;;;;4391981;32;20062;-66
2020/12/29 01:21:52;;;;;;;10.10;6.82;;;;;;;;;;4392256;32;20101;-66
2020/12/29 01:24:18;;;;;;;11.10;6.90;;;;;;;;;;4391745;32;20154;-66
2020/12/29 01:26:44;;;;;;;9.60;6.78;;;;;;;;;;4379344;32;20081;-67
2020/12/29 01:29:10;;;;;;;10.50;7.20;;;;;;;;;;4379032;32;20078;-66
2020/12/29 01:31:35;;;;;;;9.48;6.50;;;;;;;;;;4391686;32;20070;-65
2020/12/29 01:34:01;;;;;;;10.32;6.90;;;;;;;;;;4364577;32;20183;-66
2020/12/29 01:36:27;;;;;;;10.30;6.72;;;;;;;;;;4377322;32;20089;-65
2020/12/29 01:38:54;;;;;;;9.65;6.78;;;;;;;;;;4376702;32;20090;-66
2020/12/29 01:41:20;;;;;;;10.43;7.05;;;;;;;;;;4364411;32;20081;-67
2020/12/29 01:43:46;;;;;;;10.60;7.60;;;;;;;;;;4351848;32;20073;-66
2020/12/29 01:46:12;;;;;;;10.95;7.22;;;;;;;;;;4364502;32;20072;-67
2020/12/29 01:48:38;;;;;;;10.65;7.22;;;;;;;;;;4363983;32;20094;-65
2020/12/29 01:51:04;;;;;;;11.35;7.47;;;;;;;;;;4363855;32;20071;-66
2020/12/29 01:53:29;;;;;;;10.35;7.18;;;;;;;;;;4363903;32;20087;-65
2020/12/29 01:55:55;;;;;;;12.05;8.18;;;;;;;;;;4376339;32;20066;-64
2020/12/29 01:58:21;;;;;;;12.25;7.80;;;;;;;;;;4363806;32;20097;-66
2020/12/29 02:00:47;;;;;;;9.88;7.18;;;;;;;;;;4364391;32;20082;-66
2020/12/29 02:03:14;;;;;;;10.38;7.35;;;;;;;;;;4376331;32;20465;-66
2020/12/29 02:05:40;;;;;;;16.30;8.07;;;;;;;;;;4364002;32;20082;-66
2020/12/29 02:08:06;;;;;;;13.82;9.07;;;;;;;;;;4363863;32;20086;-66
2020/12/29 02:10:32;;;;;;;12.07;8.40;;;;;;;;;;4351432;32;20067;-66
2020/12/29 02:12:58;;;;;;;11.48;8.00;;;;;;;;;;4376255;32;20113;-65
2020/12/29 02:15:24;;;;;;;11.27;8.07;;;;;;;;;;4364200;32;20062;-66
2020/12/29 02:18:29;;;;;;;10.23;7.20;;;;;;;;;;4363570;32;20089;-65
2020/12/29 02:21:35;;;;;;;12.20;7.90;;;;;;;;;;4376766;32;20079;-66
2020/12/29 02:24:41;;;;;;;11.75;8.13;;;;;;;;;;4376413;32;20070;-65
2020/12/29 02:27:48;;;;;;;9.13;6.80;;;;;;;;;;4377830;32;20149;-66
2020/12/29 02:30:14;;;;;;;10.43;6.82;;;;;;;;;;4376566;32;20071;-66
2020/12/29 02:32:40;;;;;;;10.07;7.30;;;;;;;;;;4363334;32;20058;-65
2020/12/29 02:35:09;;;;;;;10.77;7.47;;;;;;;;;;4375634;32;20066;-65
2020/12/29 02:37:35;;;;;;;9.77;6.78;;;;;;;;;;4363420;32;20167;-66
2020/12/29 02:40:01;;;;;;;10.02;7.12;;;;;;;;;;4363469;32;20508;-66
2020/12/29 02:42:27;;;;;;;10.70;6.75;;;;;;;;;;4375836;32;20061;-66
2020/12/29 02:44:52;;;;;;;9.15;6.60;;;;;;;;;;4363736;32;20155;-67
2020/12/29 02:47:18;;;;;;;9.43;6.85;;;;;;;;;;4377186;32;20077;-66
2020/12/29 02:49:44;;;;;;;11.27;7.47;;;;;;;;;;4375837;32;20117;-66
2020/12/29 02:52:09;;;;;;;9.55;7.43;;;;;;;;;;4362986;32;20592;-65
2020/12/29 02:54:35;;;;;;;14.87;8.63;;;;;;;;;;4338691;32;20061;-67
2020/12/29 02:57:01;;;;;;;12.57;8.05;;;;;;;;;;4351296;32;20159;-65
2020/12/29 02:59:27;;;;;;;11.70;8.25;;;;;;;;;;4375493;32;20074;-66
2020/12/29 03:01:52;;;;;;;10.20;7.60;;;;;;;;;;4377139;32;20085;-65
2020/12/29 03:04:18;;;;;;;10.75;7.47;;;;;;;;;;4375482;32;20151;-66
2020/12/29 03:06:44;;;;;;;9.70;6.85;;;;;;;;;;4362936;32;20062;-65
2020/12/29 03:09:10;;;;;;;10.82;7.78;;;;;;;;;;4362806;32;20070;-66
2020/12/29 03:11:36;;;;;;;11.30;7.90;;;;;;;;;;4350575;32;20078;-65
2020/12/29 03:14:03;;;;;;;12.37;8.40;;;;;;;;;;4350387;32;20084;-66
2020/12/29 03:16:29;;;;;;;11.02;7.18;;;;;;;;;;4362837;32;20077;-65
2020/12/29 03:18:55;;;;;;;11.30;7.62;;;;;;;;;;4363053;32;20094;-66
2020/12/29 03:21:21;;;;;;;10.98;6.97;;;;;;;;;;4350292;32;20444;-68
2020/12/29 03:23:46;;;;;;;9.52;6.87;;;;;;;;;;4363132;32;20112;-66
2020/12/29 03:26:12;;;;;;;11.73;7.75;;;;;;;;;;4375425;32;20066;-66
2020/12/29 03:28:38;;;;;;;12.27;6.97;;;;;;;;;;4376973;32;20066;-66
2020/12/29 03:31:07;;;;;;;10.60;6.80;;;;;;;;;;4362568;32;20075;-66
2020/12/29 03:33:32;;;;;;;11.10;6.82;;;;;;;;;;4385958;32;20511;-65
2020/12/29 03:35:58;;;;;;;9.27;6.80;;;;;;;;;;4377990;32;20072;-66
2020/12/29 03:38:24;;;;;;;9.90;7.18;;;;;;;;;;4390612;32;20108;-65
2020/12/29 03:40:50;;;;;;;9.93;6.72;;;;;;;;;;4377433;32;20484;-65
2020/12/29 03:43:56;;;;;;;9.48;6.93;;;;;;;;;;4377764;32;20500;-66
2020/12/29 03:47:02;;;;;;;10.40;6.65;;;;;;;;;;4389897;32;20506;-65
2020/12/29 03:50:08;;;;;;;10.68;7.45;;;;;;;;;;4391398;32;20441;-66
2020/12/29 03:52:33;;;;;;;13.07;8.63;;;;;;;;;;4391411;32;20069;-66
2020/12/29 03:54:59;;;;;;;12.55;7.72;;;;;;;;;;4377378;32;20080;-66
2020/12/29 03:57:25;;;;;;;12.45;8.38;;;;;;;;;;4389744;32;20078;-65
2020/12/29 03:59:51;;;;;;;13.88;8.32;;;;;;;;;;4391297;32;20146;-65
2020/12/29 04:02:16;;;;;;;14.07;9.52;;;;;;;;;;4389632;32;20077;-66
2020/12/29 04:04:42;;;;;;;15.18;9.93;;;;;;;;;;4389932;32;20077;-66
2020/12/29 04:07:08;;;;;;;13.82;8.77;;;;;;;;;;4389534;32;20517;-67
2020/12/29 04:09:34;;;;;;;14.87;8.85;;;;;;;;;;4377377;32;20092;-65
2020/12/29 04:11:59;;;;;;;12.80;7.55;;;;;;;;;;4377595;32;20081;-65
2020/12/29 04:14:25;;;;;;;8.90;6.20;;;;;;;;;;4390952;32;20094;-65
2020/12/29 04:16:51;;;;;;;10.18;6.97;;;;;;;;;;4377571;32;20086;-66
2020/12/29 04:19:16;;;;;;;9.57;6.95;;;;;;;;;;4394716;32;20159;-66
2020/12/29 04:21:42;;;;;;;11.02;7.18;;;;;;;;;;4362780;32;20491;-65
2020/12/29 04:24:08;;;;;;;13.45;8.55;;;;;;;;;;4349536;32;20463;-65
2020/12/29 04:27:14;;;;;;;13.35;8.50;;;;;;;;;;4377070;32;20074;-66
2020/12/29 04:30:19;;;;;;;14.52;8.60;;;;;;;;;;4377341;32;20479;-66
2020/12/29 04:33:26;;;;;;;10.77;7.75;;;;;;;;;;4383800;32;20468;-66
2020/12/29 04:36:12;;;;;;;9.52;6.85;;;;;;;;;;4392999;32;20069;-66
2020/12/29 04:38:38;;;;;;;8.93;6.55;;;;;;;;;;4379872;32;20500;-65
2020/12/29 04:41:04;;;;;;;10.35;6.78;;;;;;;;;;4380468;32;20139;-66
2020/12/29 04:43:30;;;;;;;9.57;7.22;;;;;;;;;;4392666;32;20078;-66
2020/12/29 04:45:59;;;;;;;10.45;7.00;;;;;;;;;;4392988;32;20077;-66
2020/12/29 04:48:24;;;;;;;8.90;5.90;;;;;;;;;;4392699;32;20082;-65
2020/12/29 04:50:50;;;;;;;9.27;5.93;;;;;;;;;;4392781;32;20076;-66
2020/12/29 04:53:17;;;;;;;8.13;5.62;;;;;;;;;;4379662;32;20100;-66
2020/12/29 04:55:42;;;;;;;8.80;6.25;;;;;;;;;;4392897;32;20076;-65
2020/12/29 04:58:08;;;;;;;7.78;5.37;;;;;;;;;;4379973;32;20066;-66
2020/12/29 05:00:34;;;;;;;9.45;5.45;;;;;;;;;;4392533;32;20159;-65
2020/12/29 05:03:00;;;;;;;8.15;5.55;;;;;;;;;;4392416;32;20081;-65
2020/12/29 05:05:25;;;;;;;8.73;6.05;;;;;;;;;;4379786;32;20069;-65
2020/12/29 05:07:51;;;;;;;9.10;5.82;;;;;;;;;;4379400;32;20086;-66
2020/12/29 05:10:17;;;;;;;;;;;;;;;;;;4393093;32;20513;-65
2020/12/29 05:12:49;;;;;;;8.50;5.93;;;;;;;;;;4379812;32;20046;-65
2020/12/29 05:15:16;;;;;;;8.82;6.20;;;;;;;;;;4379342;32;20197;-66
2020/12/29 05:17:42;;;;;;;10.15;6.80;;;;;;;;;;4367323;32;20075;-65
2020/12/29 05:20:08;;;;;;;9.18;6.55;;;;;;;;;;4389241;32;20081;-67
2020/12/29 05:22:38;;;;;;;10.85;7.60;;;;;;;;;;4364692;32;20065;-66
2020/12/29 05:25:05;;;;;;;10.23;6.87;;;;;;;;;;4364377;32;20082;-66
2020/12/29 05:27:41;;;;;;;9.65;6.85;;;;;;;;;;4352376;32;20062;-67
2020/12/29 05:30:07;;;;;;;;;;;;;;;;;;4365053;32;20105;-66
2020/12/29 05:32:39;;;;;;;12.17;7.37;;;;;;;;;;4364082;32;19985;-67
2020/12/29 05:35:10;;;;;;;12.73;8.02;;;;;;;;;;4364826;32;20085;-67
2020/12/29 05:37:37;;;;;;;9.60;6.97;;;;;;;;;;4376217;32;20134;-69
2020/12/29 05:40:21;;;;;;;11.23;7.10;;;;;;;;;;4376813;32;20425;-66
2020/12/29 05:42:48;;;;;;;10.32;6.78;;;;;;;;;;4352207;32;20105;-66
2020/12/29 05:45:13;;;;;;;9.82;6.40;;;;;;;;;;4363627;32;20537;-68
2020/12/29 05:47:39;;;;;;;9.88;6.57;;;;;;;;;;4364130;32;20089;-67
2020/12/29 05:50:25;;;;;;;;;;;;;;;;;;4364683;32;20147;-67
2020/12/29 05:53:33;;;;;;;12.68;7.78;;;;;;;;;;4378396;32;19989;-70
2020/12/29 05:56:38;;;;;;;10.73;6.90;;;;;;;;;;4378307;32;20074;-69
2020/12/29 05:59:44;;;;;;;9.48;6.03;;;;;;;;;;4376837;32;20086;-67
2020/12/29 06:02:10;;;;;;;7.72;5.28;;;;;;;;;;4378161;32;20074;-69
2020/12/29 06:04:36;;;;;;;8.07;5.32;;;;;;;;;;4376378;32;20067;-70
2020/12/29 06:07:04;;;;;;;7.78;5.25;;;;;;;;;;4376260;32;20161;-70
2020/12/29 06:09:29;;;;;;;9.05;5.57;;;;;;;;;;4376191;32;20070;-70
2020/12/29 06:11:55;;;;;;;9.07;5.82;;;;;;;;;;4376709;32;20078;-68
2020/12/29 06:14:25;;;;;;;8.38;5.97;;;;;;;;;;4376306;32;20081;-67
2020/12/29 06:16:52;;;;;;;8.75;6.20;;;;;;;;;;4364261;32;20073;-69
2020/12/29 06:19:27;;;;;;;9.50;6.43;;;;;;;;;;4383741;32;20178;-68
2020/12/29 06:22:12;;;;;;;9.68;6.05;;;;;;;;;;4391778;32;20069;-68
2020/12/29 06:24:43;;;;;;;10.95;6.75;;;;;;;;;;4354137;32;20066;-66
2020/12/29 06:27:10;;;;;;;9.68;6.62;;;;;;;;;;4378979;32;20491;-67
2020/12/29 06:29:37;;;;;;;10.18;6.43;;;;;;;;;;4366337;32;20065;-65
2020/12/29 06:32:10;;;;;;;8.85;6.43;;;;;;;;;;4364067;32;20089;-66
2020/12/29 06:34:35;;;;;;;9.68;6.97;;;;;;;;;;4350989;32;20131;-65
2020/12/29 06:37:24;;;;;;;11.30;6.82;;;;;;;;;;4363833;32;20089;-65
2020/12/29 06:40:01;;;;;;;10.55;7.60;;;;;;;;;;4353024;32;20078;-68
2020/12/29 06:42:27;;;;;;;10.23;6.82;;;;;;;;;;4364595;32;20089;-70
2020/12/29 06:44:54;;;;;;;10.80;7.47;;;;;;;;;;4361258;32;20066;-70
2020/12/29 06:47:21;;;;;;;8.90;6.72;;;;;;;;;;4365554;32;20070;-70
2020/12/29 06:49:47;;;;;;;10.05;6.95;;;;;;;;;;4361822;32;20592;-71
2020/12/29 06:52:15;;;;;;;10.75;8.02;;;;;;;;;;4362829;32;20230;-71
2020/12/29 06:54:48;;;;;;;10.93;6.87;;;;;;;;;;4380678;32;20090;-68
2020/12/29 06:57:14;;;;;;;8.07;6.40;;;;;;;;;;4390561;32;20038;-69
2020/12/29 07:03:33;;;;;;;9.48;6.62;;;;;;;;;;3827836;37;20063;-69
2020/12/29 07:06:39;;;;;;;10.60;6.12;;;;;;;;;;4409183;32;20139;-71
2020/12/29 07:09:07;;;;;;;10.75;6.53;;;;;;;;;;4405622;32;20074;-73
2020/12/29 07:11:33;;;;;;;9.18;6.62;;;;;;;;;;4388409;32;20062;-73
2020/12/29 07:14:02;;;;;;;10.38;6.45;;;;;;;;;;4386503;32;20126;-66
2020/12/29 07:16:28;;;;;;;13.00;6.93;;;;;;;;;;4381630;32;20098;-68
2020/12/29 07:19:06;;;;;;;9.75;6.93;;;;;;;;;;4380148;32;20124;-70
2020/12/29 07:21:32;;;;;;;10.88;6.43;;;;;;;;;;4386527;32;20078;-68
2020/12/29 07:23:57;;;;;;;10.15;6.07;;;;;;;;;;4375427;32;20070;-70
2020/12/29 07:26:23;;;;;;;10.55;6.55;;;;;;;;;;4407065;32;20072;-70
2020/12/29 07:28:54;;;;;;;10.68;6.75;;;;;;;;;;4388923;32;20069;-69
2020/12/29 07:31:20;;;;;;;8.57;6.10;;;;;;;;;;4393925;32;20058;-72
2020/12/29 07:33:54;;;;;;;10.35;7.55;;;;;;;;;;4381020;32;20098;-70
2020/12/29 07:36:21;;;;;;;11.85;7.45;;;;;;;;;;4384277;32;20093;-69
2020/12/29 07:38:48;;;;;;;9.60;6.93;;;;;;;;;;4370830;32;20078;-72
2020/12/29 07:41:20;;;;;;;10.48;7.30;;;;;;;;;;4375982;32;20066;-70
2020/12/29 07:43:46;;;;;;;12.25;9.07;;;;;;;;;;4381477;32;20512;-70
2020/12/29 07:46:11;;;;;;;13.05;9.05;;;;;;;;;;4382144;32;20069;-69
2020/12/29 07:48:37;;;;;;;12.77;8.68;;;;;;;;;;4377589;32;20213;-69
2020/12/29 07:51:03;;;;;;;11.32;8.35;;;;;;;;;;4389858;32;20146;-69
2020/12/29 07:53:29;;;;;;;13.43;8.98;;;;;;;;;;4403388;32;20078;-70
2020/12/29 07:55:56;;;;;;;13.23;9.13;;;;;;;;;;4365078;32;20081;-69
2020/12/29 07:58:22;;;;;;;12.48;8.65;;;;;;;;;;4404986;32;20125;-70
2020/12/29 08:00:47;;;;;;;13.65;8.80;;;;;;;;;;4379164;32;20110;-70
2020/12/29 08:03:13;;;;;;;11.20;7.80;;;;;;;;;;4372590;32;20089;-68
2020/12/29 08:05:39;;;;;;;12.20;8.50;;;;;;;;;;4376948;32;20149;-68
2020/12/29 08:08:06;;;;;;;11.48;7.05;;;;;;;;;;4370316;32;20076;-71
2020/12/29 08:10:32;;;;;;;11.57;7.47;;;;;;;;;;4376214;32;20063;-71
2020/12/29 08:12:59;;;;;;;11.45;7.35;;;;;;;;;;4381934;32;20433;-69
2020/12/29 08:15:29;;;;;;;10.50;6.22;;;;;;;;;;4362873;32;20054;-67
2020/12/29 08:18:20;;;;;;;10.02;7.12;;;;;;;;;;4376920;32;20126;-68
2020/12/29 08:20:57;;;;;;;16.75;8.60;;;;;;;;;;4332112;32;20067;-67
2020/12/29 08:23:32;;;;;;;14.65;9.32;;;;;;;;;;4360475;32;20089;-69
2020/12/29 08:25:58;;;;;;;14.52;9.18;;;;;;;;;;4359343;32;20066;-69
2020/12/29 08:28:31;;;;;;;13.13;8.35;;;;;;;;;;4357813;32;20094;-74
2020/12/29 08:30:57;;;;;;;12.85;8.40;;;;;;;;;;4353731;32;20070;-71
2020/12/29 08:33:23;;;;;;;9.65;7.18;;;;;;;;;;4350896;32;20078;-69
2020/12/29 08:35:53;;;;;;;9.68;6.55;;;;;;;;;;4327375;32;20106;-70
2020/12/29 08:38:37;;;;;;;11.35;6.70;;;;;;;;;;4342728;32;20078;-68
2020/12/29 08:41:11;;;;;;;8.45;5.78;;;;;;;;;;4361608;32;20075;-70
2020/12/29 08:43:40;;;;;;;9.40;6.10;;;;;;;;;;4338882;32;20066;-69
2020/12/29 08:46:07;;;;;;;9.45;6.22;;;;;;;;;;4350804;32;20070;-68
2020/12/29 08:48:33;;;;;;;9.15;6.32;;;;;;;;;;4352012;32;20074;-75
2020/12/29 08:50:59;;;;;;;9.00;6.32;;;;;;;;;;4366427;32;20067;-72
2020/12/29 08:53:25;;;;;;;9.07;6.30;;;;;;;;;;4347940;32;20582;-71
2020/12/29 08:55:51;;;;;;;9.88;6.75;;;;;;;;;;4341852;32;20462;-67
2020/12/29 08:59:04;;;;;;;11.32;7.53;;;;;;;;;;4347640;32;20489;-67
2020/12/29 09:05:03;;;;;;;12.20;7.78;;;;;;;;;;3852390;37;20476;-65
2020/12/29 09:07:59;;;;;;;11.23;7.15;;;;;;;;;;4405939;32;20077;-68
2020/12/29 09:10:25;;;;;;;9.68;6.75;;;;;;;;;;4413312;32;20499;-72
2020/12/29 09:12:51;;;;;;;10.60;6.30;;;;;;;;;;4390955;32;20078;-69
2020/12/29 09:15:24;;;;;;;11.05;6.97;;;;;;;;;;4404296;32;20089;-67
2020/12/29 09:17:55;;;;;;;9.02;6.10;;;;;;;;;;4417507;32;20165;-67
2020/12/29 09:20:25;;;;;;;10.38;6.30;;;;;;;;;;4397334;32;20083;-67
2020/12/29 09:23:01;;;;;;;11.18;5.45;;;;;;;;;;4380868;32;20536;-70
2020/12/29 09:25:45;;;;;;;8.40;5.72;;;;;;;;;;4406930;32;20074;-72
2020/12/29 09:28:11;;;;;;;8.50;6.32;;;;;;;;;;4385633;32;20574;-70
2020/12/29 09:30:38;;;;;;;8.43;5.75;;;;;;;;;;4402647;32;20081;-71
2020/12/29 09:33:04;;;;;;;9.35;6.25;;;;;;;;;;4398103;32;20157;-71
2020/12/29 09:35:30;;;;;;;9.10;5.95;;;;;;;;;;4390538;32;20463;-69
2020/12/29 09:37:57;;;;;;;8.55;5.97;;;;;;;;;;4404907;32;20070;-71
2020/12/29 09:40:22;;;;;;;8.63;5.95;;;;;;;;;;4380336;32;20092;-70
2020/12/29 09:42:48;;;;;;;9.30;5.80;;;;;;;;;;4392646;32;20085;-70
2020/12/29 09:45:18;;;;;;;9.68;5.30;;;;;;;;;;4390007;32;20508;-72
2020/12/29 09:47:43;;;;;;;8.05;4.97;;;;;;;;;;4402492;32;20178;-70
2020/12/29 09:50:09;;;;;;;9.63;5.60;;;;;;;;;;4408152;32;20077;-71
2020/12/29 09:52:35;;;;;;;7.37;5.55;;;;;;;;;;4402931;32;20101;-72
2020/12/29 09:55:02;;;;;;;10.80;6.53;;;;;;;;;;4415787;32;20100;-72
2020/12/29 09:57:28;;;;;;;9.00;6.25;;;;;;;;;;4404016;32;20077;-71
2020/12/29 09:59:54;;;;;;;8.25;6.00;;;;;;;;;;4389726;32;20108;-70
2020/12/29 10:02:20;;;;;;;9.65;5.85;;;;;;;;;;4392916;32;20578;-70
2020/12/29 10:04:46;;;;;;;9.73;6.40;;;;;;;;;;4382637;32;20101;-70
2020/12/29 10:07:12;;;;;;;9.82;5.95;;;;;;;;;;4389256;32;20527;-69
2020/12/29 10:09:38;;;;;;;10.77;6.10;;;;;;;;;;4395655;32;20070;-70
2020/12/29 10:12:03;;;;;;;11.20;6.50;;;;;;;;;;4397425;32;20173;-69
2020/12/29 10:14:29;;;;;;;10.57;6.75;;;;;;;;;;4378497;32;20086;-72
2020/12/29 10:16:55;;;;;;;10.27;6.03;;;;;;;;;;4378680;32;20070;-73
2020/12/29 10:19:20;;;;;;;11.40;7.35;;;;;;;;;;4384577;32;20207;-71
2020/12/29 10:21:51;;;;;;;11.60;6.68;;;;;;;;;;4389785;32;20069;-73
2020/12/29 10:24:17;;;;;;;13.48;9.02;;;;;;;;;;4371693;32;20183;-70
2020/12/29 10:26:43;;;;;;;14.70;9.43;;;;;;;;;;4377266;32;20517;-71
2020/12/29 10:29:08;;;;;;;14.13;9.20;;;;;;;;;;4376971;32;20089;-70
2020/12/29 10:31:34;;;;;;;15.45;10.65;;;;;;;;;;4376953;32;20078;-70
2020/12/29 10:34:02;;;;;;;17.92;11.30;;;;;;;;;;4378026;32;20089;-71
2020/12/29 10:36:37;;;;;;;11.90;7.95;;;;;;;;;;4392092;32;20089;-70
2020/12/29 10:39:03;;;;;;;10.98;6.07;;;;;;;;;;4380227;32;20086;-70
2020/12/29 10:42:10;;;;;;;13.95;8.73;;;;;;;;;;4404292;32;20515;-70
2020/12/29 10:45:16;;;;;;;12.93;7.28;;;;;;;;;;4404513;32;20150;-69
2020/12/29 10:48:22;;;;;;;12.90;7.97;;;;;;;;;;4392013;32;20053;-70
2020/12/29 10:51:08;;;;;;;13.13;7.65;;;;;;;;;;4393429;32;20062;-70
2020/12/29 10:53:34;;;;;;;20.83;9.38;;;;;;;;;;4391710;32;20086;-71
2020/12/29 10:55:59;;;;;;;13.35;8.63;;;;;;;;;;4367090;32;20146;-69
2020/12/29 10:58:25;;;;;;;16.02;9.13;;;;;;;;;;4404203;32;20208;-70
2020/12/29 11:00:51;;;;;;;14.90;8.88;;;;;;;;;;4378931;32;20076;-71
2020/12/29 11:03:17;;;;;;;11.43;7.72;;;;;;;;;;4368179;32;20109;-71
2020/12/29 11:05:42;;;;;;;12.25;7.75;;;;;;;;;;4378297;32;20232;-71
2020/12/29 11:08:08;;;;;;;10.10;6.50;;;;;;;;;;4376261;32;20066;-69
2020/12/29 11:10:34;;;;;;;9.60;7.00;;;;;;;;;;4362937;32;20069;-68
2020/12/29 11:12:59;;;;;;;8.75;6.03;;;;;;;;;;4376011;32;20098;-73
2020/12/29 11:15:26;;;;;;;10.18;6.28;;;;;;;;;;4363709;32;20058;-70
2020/12/29 11:17:52;;;;;;;10.63;6.97;;;;;;;;;;4355536;32;20085;-72
2020/12/29 11:20:17;;;;;;;11.60;7.35;;;;;;;;;;4369030;32;20070;-72
2020/12/29 11:22:44;;;;;;;11.73;7.03;;;;;;;;;;4352676;32;20478;-69
2020/12/29 11:25:10;;;;;;;13.23;8.25;;;;;;;;;;4375018;32;20080;-70
2020/12/29 11:27:36;;;;;;;12.52;8.05;;;;;;;;;;4378779;32;20141;-72
2020/12/29 11:30:02;;;;;;;12.75;7.82;;;;;;;;;;4381183;32;20607;-72
2020/12/29 11:32:28;;;;;;;12.80;7.75;;;;;;;;;;4351707;32;20179;-71
2020/12/29 11:34:54;;;;;;;11.05;7.37;;;;;;;;;;4379787;32;20076;-71
2020/12/29 11:37:20;;;;;;;11.68;6.70;;;;;;;;;;4369145;32;20066;-72
2020/12/29 11:39:45;;;;;;;10.85;6.40;;;;;;;;;;4386016;32;20093;-73
2020/12/29 11:42:11;;;;;;;9.30;5.90;;;;;;;;;;4362934;32;20101;-72
2020/12/29 11:44:37;;;;;;;8.95;5.65;;;;;;;;;;4376672;32;20069;-75
2020/12/29 11:47:02;;;;;;;10.00;5.60;;;;;;;;;;4371455;32;20097;-75
2020/12/29 11:49:28;;;;;;;9.85;5.70;;;;;;;;;;4366946;32;20165;-77
2020/12/29 11:51:54;;;;;;;9.75;6.18;;;;;;;;;;4381442;32;20113;-73
2020/12/29 11:54:20;;;;;;;9.75;6.28;;;;;;;;;;4371191;32;20444;-69
2020/12/29 11:56:49;;;;;;;11.68;6.93;;;;;;;;;;4375283;32;20589;-71
2020/12/29 11:59:14;;;;;;;9.18;6.47;;;;;;;;;;4369869;32;20074;-72
2020/12/29 12:01:40;;;;;;;9.20;6.80;;;;;;;;;;4357996;32;20164;-69
2020/12/29 12:04:06;;;;;;;10.13;6.47;;;;;;;;;;4365491;32;20180;-70
2020/12/29 12:06:35;;;;;;;10.75;6.35;;;;;;;;;;4354303;32;20441;-69
2020/12/29 12:09:02;;;;;;;11.73;6.82;;;;;;;;;;4374940;32;20146;-72
2020/12/29 12:11:28;;;;;;;11.45;6.22;;;;;;;;;;4363337;32;20097;-70
2020/12/29 12:13:55;;;;;;;11.52;6.65;;;;;;;;;;4376436;32;20077;-70
2020/12/29 12:16:21;;;;;;;9.50;6.82;;;;;;;;;;4377066;32;20616;-71
2020/12/29 12:18:47;;;;;;;9.18;5.95;;;;;;;;;;4365324;32;20094;-69
2020/12/29 12:21:12;;;;;;;12.65;7.60;;;;;;;;;;4375207;32;20190;-72
2020/12/29 12:23:38;;;;;;;10.35;6.62;;;;;;;;;;4363003;32;20077;-71
2020/12/29 12:26:04;;;;;;;9.80;6.80;;;;;;;;;;4357359;32;20074;-73
2020/12/29 12:28:30;;;;;;;11.93;7.35;;;;;;;;;;4381073;32;20505;-73
2020/12/29 12:30:55;;;;;;;;;;;;;;;;;;4367420;32;20066;-73
2020/12/29 12:33:21;;;;;;;10.65;6.97;;;;;;;;;;4376344;32;19996;-73
2020/12/29 12:35:47;;;;;;;11.18;7.18;;;;;;;;;;4349950;32;20496;-72
2020/12/29 12:38:13;;;;;;;10.23;6.68;;;;;;;;;;4362631;32;20522;-71
2020/12/29 12:40:39;;;;;;;9.68;6.65;;;;;;;;;;4381796;32;20136;-71
2020/12/29 12:43:05;;;;;;;10.90;6.85;;;;;;;;;;4362075;32;20088;-71
2020/12/29 12:45:31;;;;;;;11.70;7.87;;;;;;;;;;4377886;32;20062;-68
2020/12/29 12:47:56;;;;;;;10.98;6.50;;;;;;;;;;4375787;32;20066;-71
2020/12/29 12:50:22;;;;;;;10.20;6.57;;;;;;;;;;4371557;32;20099;-71
2020/12/29 12:52:48;;;;;;;;;;;;;;;;;;4382534;32;20085;-72
2020/12/29 12:55:14;;;;;;;10.82;6.78;;;;;;;;;;4379967;32;19969;-73
2020/12/29 12:57:40;;;;;;;8.95;6.53;;;;;;;;;;4389983;32;20148;-74
2020/12/29 13:00:05;;;;;;;9.95;6.60;;;;;;;;;;4356969;32;20078;-72
2020/12/29 13:02:31;;;;;;;10.23;6.00;;;;;;;;;;4362049;32;20159;-72
2020/12/29 13:04:57;;;;;;;9.15;6.20;;;;;;;;;;4380804;32;20121;-71
2020/12/29 13:07:22;;;;;;;;;;;;;;;;;;4384794;32;20066;-67
2020/12/29 13:09:48;;;;;;;9.55;6.32;;;;;;;;;;4381137;32;20024;-71
2020/12/29 13:12:14;;;;;;;9.23;6.20;;;;;;;;;;4376547;32;20485;-72
2020/12/29 13:14:40;;;;;;;11.68;7.10;;;;;;;;;;4362129;32;20074;-73
2020/12/29 13:17:05;;;;;;;9.63;6.50;;;;;;;;;;4389237;32;20519;-72
2020/12/29 13:19:31;;;;;;;11.00;5.22;;;;;;;;;;4365032;32;20157;-72
2020/12/29 13:21:57;;;;;;;8.40;5.65;;;;;;;;;;4374410;32;20074;-72
2020/12/29 13:24:22;;;;;;;10.93;6.78;;;;;;;;;;4375981;32;20597;-72
2020/12/29 13:26:49;;;;;;;;;;;;;;;;;;4375514;32;20145;-71
2020/12/29 13:29:15;;;;;;;10.07;6.68;;;;;;;;;;4375034;32;19985;-71
2020/12/29 13:31:41;;;;;;;10.05;6.30;;;;;;;;;;4363006;32;20074;-71
2020/12/29 13:34:07;;;;;;;8.65;6.03;;;;;;;;;;4366988;32;20165;-73
2020/12/29 13:36:32;;;;;;;9.85;6.53;;;;;;;;;;4377037;32;20054;-70
2020/12/29 13:38:58;;;;;;;8.90;5.53;;;;;;;;;;4387392;32;20157;-69
2020/12/29 13:41:24;;;;;;;8.70;5.03;;;;;;;;;;4364484;32;20059;-70
2020/12/29 13:43:50;;;;;;;10.23;6.50;;;;;;;;;;4377304;32;20492;-71
2020/12/29 13:46:15;;;;;;;9.48;6.43;;;;;;;;;;4374413;32;20078;-72
2020/12/29 13:48:42;;;;;;;10.55;7.37;;;;;;;;;;4383074;32;20090;-72
2020/12/29 13:51:07;;;;;;;8.40;6.68;;;;;;;;;;4383784;32;20077;-72
2020/12/29 13:53:33;;;;;;;9.75;6.25;;;;;;;;;;4375015;32;20089;-70
2020/12/29 13:55:59;;;;;;;10.30;6.82;;;;;;;;;;4373721;32;20074;-72
2020/12/29 13:58:25;;;;;;;9.80;6.82;;;;;;;;;;4375654;32;20078;-71
2020/12/29 14:00:51;;;;;;;10.40;6.50;;;;;;;;;;4376621;32;20211;-69
2020/12/29 14:03:17;;;;;;;9.85;6.80;;;;;;;;;;4366439;32;20096;-71
2020/12/29 14:05:42;;;;;;;10.93;8.18;;;;;;;;;;4380380;32;20162;-68
2020/12/29 14:08:08;;;;;;;10.40;7.20;;;;;;;;;;4380124;32;20500;-71
2020/12/29 14:10:34;;;;;;;11.32;8.15;;;;;;;;;;4377628;32;20170;-70
2020/12/29 14:13:03;;;;;;;13.13;10.18;;;;;;;;;;4385016;32;20130;-72
2020/12/29 14:15:28;;;;;;;20.08;13.25;;;;;;;;;;4382475;32;20070;-71
2020/12/29 14:17:54;;;;;;;22.73;14.55;;;;;;;;;;4376306;32;20106;-72
2020/12/29 14:20:23;;;;;;;;;;;;;;;;;;4377744;32;20078;-71
2020/12/29 14:22:49;;;;;;;17.48;11.48;;;;;;;;;;4379761;32;19964;-69
2020/12/29 14:25:15;;;;;;;14.30;10.30;;;;;;;;;;4377962;32;20650;-71
2020/12/29 14:27:40;;;;;;;14.18;9.55;;;;;;;;;;4376020;32;20148;-72
2020/12/29 14:30:06;;;;;;;15.57;10.30;;;;;;;;;;4376743;32;20440;-72
2020/12/29 14:32:32;;;;;;;17.45;11.15;;;;;;;;;;4382488;32;20109;-71
2020/12/29 14:34:58;;;;;;;15.75;9.50;;;;;;;;;;4378163;32;20105;-70
2020/12/29 14:37:24;;;;;;;12.18;8.45;;;;;;;;;;4380000;32;20090;-70
2020/12/29 14:39:50;;;;;;;12.98;7.93;;;;;;;;;;4387889;32;20547;-70
2020/12/29 14:42:16;;;;;;;12.85;8.95;;;;;;;;;;4381082;32;20637;-72
2020/12/29 14:44:43;;;;;;;13.15;9.50;;;;;;;;;;4351471;32;20171;-72
2020/12/29 14:47:09;;;;;;;11.30;7.78;;;;;;;;;;4339591;32;20138;-72
2020/12/29 14:49:34;;;;;;;14.30;8.77;;;;;;;;;;4354773;32;20093;-73
2020/12/29 14:52:00;;;;;;;12.90;8.27;;;;;;;;;;4382428;32;20179;-73
2020/12/29 14:54:34;;;;;;;14.80;7.93;;;;;;;;;;4357526;32;20097;-73